Time;durP1;ratioP1;P1;durP2;ratioP2;P2;SDS_P1;SDS_P2;PMS_P1;PMS_P2;Temp;Humidity;BMP_temperature;BMP_pressure;BME280_temperature;BME280_humidity;BME280_pressure;Samples;Min_cycle;Max_cycle;Signal;HPM_P1;HPM_P2
2024/02/05 00:00:58;;;;;;;18.75;4.00;;;10.80;99.90;;;;;;5011235;28;20121;-77
2024/02/05 00:03:23;;;;;;;14.10;3.63;;;10.80;99.90;;;;;;5010066;28;20127;-80
2024/02/05 00:05:49;;;;;;;16.98;3.95;;;10.80;99.90;;;;;;5008328;28;20033;-78
2024/02/05 00:08:15;;;;;;;20.67;4.35;;;10.70;99.90;;;;;;5012104;28;20038;-80
2024/02/05 00:10:40;;;;;;;16.70;4.18;;;10.70;99.90;;;;;;5006977;28;20046;-77
2024/02/05 00:13:06;;;;;;;19.40;4.00;;;10.70;99.90;;;;;;5011242;28;20041;-77
2024/02/05 00:15:32;;;;;;;20.88;4.22;;;10.70;99.90;;;;;;5010686;28;20739;-78
2024/02/05 00:17:58;;;;;;;20.05;4.55;;;10.70;99.90;;;;;;5011084;28;20073;-77
2024/02/05 00:20:23;;;;;;;21.50;4.97;;;10.70;99.90;;;;;;5010622;28;20479;-79
2024/02/05 00:22:49;;;;;;;22.05;4.65;;;10.70;99.90;;;;;;5004440;28;20056;-81
2024/02/05 00:25:14;;;;;;;26.30;4.68;;;10.70;99.90;;;;;;5003625;28;20099;-78
2024/02/05 00:27:40;;;;;;;20.65;4.63;;;10.70;99.90;;;;;;5008219;28;20045;-78
2024/02/05 00:30:06;;;;;;;22.33;5.15;;;10.70;99.90;;;;;;5001357;28;20044;-80
2024/02/05 00:32:32;;;;;;;24.88;5.05;;;10.80;99.90;;;;;;5008083;28;20037;-78
2024/02/05 00:34:58;;;;;;;17.70;4.55;;;10.80;99.90;;;;;;5010645;28;20121;-81
2024/02/05 00:37:25;;;;;;;19.80;4.72;;;10.80;99.90;;;;;;5007502;28;20037;-86
2024/02/05 00:39:50;;;;;;;19.02;4.85;;;10.80;99.90;;;;;;5008619;28;20041;-77
2024/02/05 00:42:16;;;;;;;19.30;4.80;;;10.80;99.90;;;;;;5010893;28;20057;-78
2024/02/05 00:44:41;;;;;;;18.80;4.43;;;10.70;99.90;;;;;;5009128;28;20045;-80
2024/02/05 00:47:07;;;;;;;19.85;4.97;;;10.70;99.90;;;;;;5010786;28;20046;-78
2024/02/05 00:49:33;;;;;;;21.98;5.28;;;10.70;99.90;;;;;;5010215;28;20036;-78
2024/02/05 00:51:58;;;;;;;23.23;5.05;;;10.70;99.90;;;;;;5005108;28;20122;-78
2024/02/05 00:54:24;;;;;;;28.85;5.90;;;10.70;99.90;;;;;;5007100;28;20061;-79
2024/02/05 00:56:49;;;;;;;21.92;5.03;;;10.70;99.90;;;;;;5003607;28;20514;-78
2024/02/05 00:59:15;;;;;;;25.67;5.28;;;10.70;99.90;;;;;;4993926;28;20104;-78
2024/02/05 01:01:43;;;;;;;24.52;5.65;;;10.80;99.90;;;;;;5008240;28;20042;-78
2024/02/05 01:04:09;;;;;;;30.48;5.53;;;10.60;99.90;;;;;;5002763;28;20046;-78
2024/02/05 01:06:35;;;;;;;22.17;4.85;;;10.60;99.90;;;;;;5002239;28;20050;-78
2024/02/05 01:09:04;;;;;;;26.75;5.85;;;10.60;99.90;;;;;;5005921;28;20491;-78
2024/02/05 01:11:30;;;;;;;25.83;4.82;;;10.60;99.90;;;;;;5003487;28;20403;-77
2024/02/05 01:13:55;;;;;;;26.33;5.10;;;10.60;99.90;;;;;;5006287;28;20042;-78
2024/02/05 01:16:21;;;;;;;23.08;5.13;;;10.50;99.90;;;;;;5005199;28;20125;-78
2024/02/05 01:18:46;;;;;;;26.35;5.45;;;10.50;99.90;;;;;;5008141;28;20040;-80
2024/02/05 01:21:12;;;;;;;24.30;5.20;;;10.60;99.90;;;;;;5016867;28;20026;-77
2024/02/05 01:23:38;;;;;;;28.60;5.38;;;10.50;99.90;;;;;;5007651;28;20496;-77
2024/02/05 01:26:04;;;;;;;25.42;5.97;;;10.50;99.90;;;;;;5001273;28;20096;-78
2024/02/05 01:28:29;;;;;;;22.75;6.05;;;10.50;99.90;;;;;;4999671;28;20404;-78
2024/02/05 01:30:55;;;;;;;25.30;5.32;;;10.50;99.90;;;;;;5006218;28;20038;-79
2024/02/05 01:33:21;;;;;;;29.40;5.40;;;10.50;99.90;;;;;;5011304;28;20030;-77
2024/02/05 01:35:47;;;;;;;26.35;6.10;;;10.50;99.90;;;;;;5006636;28;20038;-78
2024/02/05 01:38:12;;;;;;;34.25;6.90;;;10.50;99.90;;;;;;5003824;28;20042;-78
2024/02/05 01:40:38;;;;;;;27.13;5.53;;;10.50;99.90;;;;;;5009738;28;20037;-78
2024/02/05 01:43:04;;;;;;;24.45;6.00;;;10.50;99.90;;;;;;4995739;28;20173;-78
2024/02/05 01:45:29;;;;;;;30.90;6.03;;;10.40;99.90;;;;;;5009367;28;20045;-79
2024/02/05 01:47:56;;;;;;;29.77;6.18;;;10.40;99.90;;;;;;5013321;28;20049;-77
2024/02/05 01:50:21;;;;;;;22.95;5.32;;;10.50;99.90;;;;;;5015255;28;20516;-81
2024/02/05 01:52:50;;;;;;;25.02;5.80;;;10.50;99.90;;;;;;5013630;28;20046;-77
2024/02/05 01:55:24;;;;;;;25.67;6.00;;;10.50;99.90;;;;;;5007908;28;20077;-78
2024/02/05 01:57:51;;;;;;;31.40;5.93;;;10.50;99.90;;;;;;5014064;28;20384;-80
2024/02/05 02:00:16;;;;;;;26.25;5.35;;;10.40;99.90;;;;;;4992485;28;20042;-78
2024/02/05 02:02:43;;;;;;;32.58;6.28;;;10.40;99.90;;;;;;5014186;28;20056;-80
2024/02/05 02:05:09;;;;;;;24.60;5.88;;;10.40;99.90;;;;;;5015028;28;20030;-78
2024/02/05 02:07:35;;;;;;;26.85;6.18;;;10.40;99.90;;;;;;5007719;28;20406;-79
2024/02/05 02:10:01;;;;;;;27.27;5.55;;;10.40;99.90;;;;;;5010263;28;20042;-77
2024/02/05 02:12:26;;;;;;;32.42;6.00;;;10.40;99.90;;;;;;5016599;28;20029;-79
2024/02/05 02:14:52;;;;;;;27.02;6.22;;;10.40;99.90;;;;;;5013977;28;20033;-80
2024/02/05 02:17:21;;;;;;;25.15;6.00;;;10.40;99.90;;;;;;5008190;28;20042;-78
2024/02/05 02:19:48;;;;;;;32.92;6.20;;;10.40;99.90;;;;;;5005281;28;20045;-78
2024/02/05 02:22:53;;;;;;;32.65;6.78;;;10.30;99.90;;;;;;5010290;28;20042;-77
2024/02/05 02:25:20;;;;;;;34.55;6.93;;;10.30;99.90;;;;;;5004805;28;20068;-77
2024/02/05 02:27:46;;;;;;;31.77;6.25;;;10.30;99.90;;;;;;5016206;28;20554;-77
2024/02/05 02:30:18;;;;;;;35.13;6.97;;;10.30;99.90;;;;;;5012312;28;20069;-77
2024/02/05 02:32:54;;;;;;;31.92;6.13;;;10.30;99.90;;;;;;5009895;28;20082;-77
2024/02/05 02:35:27;;;;;;;36.03;6.63;;;10.20;99.90;;;;;;5006867;28;20614;-77
2024/02/05 02:38:26;;;;;;;35.78;7.15;;;10.20;99.90;;;;;;5004399;28;20038;-78
2024/02/05 02:40:59;;;;;;;30.50;6.50;;;10.20;99.90;;;;;;5001259;28;20049;-77
2024/02/05 02:43:26;;;;;;;33.55;6.35;;;10.10;99.90;;;;;;5012713;28;20133;-77
2024/02/05 02:45:53;;;;;;;39.38;6.63;;;10.20;99.90;;;;;;5010247;28;20053;-77
2024/02/05 02:48:19;;;;;;;36.90;7.47;;;10.10;99.90;;;;;;5008134;28;20040;-77
2024/02/05 02:50:45;;;;;;;32.78;6.80;;;10.10;99.90;;;;;;4996328;28;20034;-86
2024/02/05 02:53:11;;;;;;;30.27;6.70;;;10.10;99.90;;;;;;5014504;28;20038;-78
2024/02/05 02:55:36;;;;;;;33.67;6.47;;;10.10;99.90;;;;;;5014049;28;20093;-78
2024/02/05 02:58:02;;;;;;;36.58;7.22;;;10.10;99.90;;;;;;5009597;28;20056;-78
2024/02/05 03:00:28;;;;;;;29.90;6.40;;;10.10;99.90;;;;;;5008190;28;20072;-80
2024/02/05 03:02:54;;;;;;;36.60;8.07;;;10.10;99.90;;;;;;5010971;28;20042;-77
2024/02/05 03:05:20;;;;;;;41.28;7.82;;;10.10;99.90;;;;;;5014414;28;20041;-78
2024/02/05 03:07:46;;;;;;;33.13;7.22;;;10.20;99.90;;;;;;5006376;28;20125;-78
2024/02/05 03:10:12;;;;;;;30.70;6.65;;;10.10;99.90;;;;;;5011807;28;20034;-81
2024/02/05 03:12:37;;;;;;;32.30;6.80;;;10.10;99.90;;;;;;5006232;28;20480;-77
2024/02/05 03:15:03;;;;;;;35.80;6.72;;;10.10;99.90;;;;;;5008981;28;20049;-78
2024/02/05 03:17:29;;;;;;;31.45;7.07;;;10.10;99.90;;;;;;5013038;28;20491;-77
2024/02/05 03:19:54;;;;;;;35.83;7.13;;;10.10;99.90;;;;;;5012660;28;20045;-78
2024/02/05 03:22:20;;;;;;;30.83;6.85;;;10.10;99.90;;;;;;5010531;28;20561;-78
2024/02/05 03:24:46;;;;;;;30.50;7.03;;;10.10;99.90;;;;;;5005863;28;20117;-77
2024/02/05 03:27:12;;;;;;;37.90;8.02;;;10.10;99.90;;;;;;5012715;28;20218;-78
2024/02/05 03:29:38;;;;;;;32.90;7.38;;;10.10;99.90;;;;;;5006337;28;20038;-80
2024/02/05 03:32:04;;;;;;;30.35;6.90;;;10.20;99.90;;;;;;5004154;28;20045;-78
2024/02/05 03:34:29;;;;;;;35.95;8.63;;;10.10;99.90;;;;;;5006627;28;20034;-77
2024/02/05 03:36:55;;;;;;;36.20;7.38;;;10.20;99.90;;;;;;5004543;28;20073;-78
2024/02/05 03:39:21;;;;;;;32.28;7.40;;;10.10;99.90;;;;;;5009439;28;20042;-81
2024/02/05 03:41:46;;;;;;;32.70;7.68;;;10.10;99.90;;;;;;5013050;28;20033;-78
2024/02/05 03:44:12;;;;;;;36.30;7.15;;;10.10;99.90;;;;;;5006017;28;20030;-77
2024/02/05 03:46:38;;;;;;;29.77;7.20;;;10.40;99.90;;;;;;5011834;28;20042;-78
2024/02/05 03:49:03;;;;;;;33.22;7.10;;;10.10;99.90;;;;;;5010923;28;20112;-78
2024/02/05 03:51:29;;;;;;;30.00;7.50;;;10.10;99.90;;;;;;5011992;28;20122;-78
2024/02/05 03:53:55;;;;;;;43.28;7.88;;;10.10;99.90;;;;;;5004003;28;20070;-78
2024/02/05 03:56:21;;;;;;;33.58;6.95;;;10.10;99.90;;;;;;5012708;28;20041;-77
2024/02/05 03:58:48;;;;;;;34.53;6.45;;;10.00;99.90;;;;;;5003758;28;20680;-78
2024/02/05 04:01:14;;;;;;;36.70;7.50;;;10.00;99.90;;;;;;5001723;28;20093;-77
2024/02/05 04:03:39;;;;;;;31.90;7.90;;;10.00;99.90;;;;;;4995676;28;20050;-78
2024/02/05 04:06:06;;;;;;;38.38;7.53;;;10.00;99.90;;;;;;5005410;28;20046;-77
2024/02/05 04:08:31;;;;;;;31.05;7.35;;;10.10;99.90;;;;;;5008677;28;20042;-79
2024/02/05 04:10:57;;;;;;;25.73;6.95;;;10.00;99.90;;;;;;5004459;28;20042;-78
2024/02/05 04:13:23;;;;;;;38.40;7.57;;;9.90;99.90;;;;;;5004969;28;20514;-77
2024/02/05 04:15:48;;;;;;;35.00;7.25;;;10.00;99.90;;;;;;5012889;28;20032;-77
2024/02/05 04:18:14;;;;;;;32.60;6.53;;;9.90;99.90;;;;;;5005414;28;20172;-78
2024/02/05 04:20:39;;;;;;;33.53;6.97;;;9.90;99.90;;;;;;5008458;28;20053;-80
2024/02/05 04:23:05;;;;;;;40.58;7.80;;;9.80;99.90;;;;;;5009283;28;20588;-78
2024/02/05 04:25:31;;;;;;;24.15;6.65;;;9.80;99.90;;;;;;5001545;28;20116;-77
2024/02/05 04:27:56;;;;;;;31.95;6.07;;;9.80;99.90;;;;;;5011875;28;20121;-78
2024/02/05 04:30:29;;;;;;;34.85;6.90;;;9.80;99.90;;;;;;5004115;28;20399;-79
2024/02/05 04:32:58;;;;;;;32.03;7.05;;;9.80;99.90;;;;;;5003829;28;20038;-78
2024/02/05 04:35:24;;;;;;;36.10;6.85;;;9.80;99.90;;;;;;5010864;28;20373;-81
2024/02/05 04:37:49;;;;;;;38.33;6.60;;;9.80;99.90;;;;;;4998292;28;20049;-78
2024/02/05 04:40:15;;;;;;;33.17;7.97;;;9.80;99.90;;;;;;5007586;28;20041;-77
2024/02/05 04:42:40;;;;;;;29.42;6.95;;;9.80;99.90;;;;;;5004598;28;20539;-77
2024/02/05 04:45:08;;;;;;;32.35;7.32;;;9.80;99.90;;;;;;5010386;28;20033;-77
2024/02/05 04:47:33;;;;;;;40.30;7.78;;;9.80;99.90;;;;;;5004369;28;20542;-77
2024/02/05 04:50:00;;;;;;;32.63;7.03;;;9.80;99.90;;;;;;5008090;28;20038;-78
2024/02/05 04:52:26;;;;;;;34.42;6.97;;;9.80;99.90;;;;;;5001062;28;20468;-77
2024/02/05 04:54:51;;;;;;;43.22;8.10;;;9.80;99.90;;;;;;5008287;28;20084;-77
2024/02/05 04:57:18;;;;;;;31.45;6.78;;;9.80;99.90;;;;;;5011395;28;20038;-80
2024/02/05 04:59:43;;;;;;;37.15;8.00;;;9.70;99.90;;;;;;5003129;28;20042;-79
2024/02/05 05:02:09;;;;;;;37.92;8.50;;;9.80;99.90;;;;;;5005992;28;20110;-80
2024/02/05 05:04:36;;;;;;;35.05;7.18;;;9.70;99.90;;;;;;4993850;28;20455;-77
2024/02/05 05:07:02;;;;;;;40.60;7.28;;;9.70;99.90;;;;;;5009153;28;20050;-77
2024/02/05 05:09:27;;;;;;;36.38;7.72;;;9.70;99.90;;;;;;5011655;28;20154;-77
2024/02/05 05:11:53;;;;;;;35.03;7.53;;;9.70;99.90;;;;;;5010220;28;20056;-81
2024/02/05 05:14:19;;;;;;;36.95;7.45;;;9.70;99.90;;;;;;5009137;28;20037;-77
2024/02/05 05:16:44;;;;;;;28.67;7.30;;;9.70;99.90;;;;;;5011418;28;20120;-78
2024/02/05 05:19:10;;;;;;;41.58;8.35;;;9.70;99.90;;;;;;5004059;28;20042;-78
2024/02/05 05:21:36;;;;;;;31.35;7.65;;;9.70;99.90;;;;;;5007002;28;20030;-78
2024/02/05 05:24:01;;;;;;;33.97;7.18;;;9.70;99.90;;;;;;5004183;28;20034;-80
2024/02/05 05:26:27;;;;;;;36.10;7.20;;;9.70;99.90;;;;;;5004639;28;20052;-78
2024/02/05 05:28:52;;;;;;;32.05;7.28;;;9.70;99.90;;;;;;5004817;28;20033;-78
2024/02/05 05:31:18;;;;;;;36.75;6.72;;;9.70;99.90;;;;;;4983129;28;20045;-78
2024/02/05 05:33:45;;;;;;;36.42;6.60;;;9.70;99.90;;;;;;5009302;28;20460;-80
2024/02/05 05:36:11;;;;;;;36.10;7.95;;;9.70;99.90;;;;;;5004948;28;20065;-78
2024/02/05 05:38:38;;;;;;;33.75;7.55;;;9.70;99.90;;;;;;5008991;28;20068;-78
2024/02/05 05:41:03;;;;;;;39.10;7.80;;;9.70;99.90;;;;;;5001222;28;20050;-77
2024/02/05 05:43:32;;;;;;;40.72;8.13;;;9.70;99.90;;;;;;4999861;28;20038;-77
2024/02/05 05:45:58;;;;;;;30.83;6.75;;;9.70;99.90;;;;;;5007322;28;20037;-77
2024/02/05 05:48:24;;;;;;;28.33;6.60;;;9.70;99.90;;;;;;5009486;28;20112;-78
2024/02/05 05:50:51;;;;;;;35.25;7.70;;;9.70;99.90;;;;;;5003801;28;20122;-78
2024/02/05 05:53:17;;;;;;;39.22;8.07;;;9.70;99.90;;;;;;5007892;28;20129;-78
2024/02/05 05:55:43;;;;;;;35.90;7.60;;;9.70;99.90;;;;;;5007973;28;20137;-81
2024/02/05 05:58:08;;;;;;;34.95;7.15;;;9.80;99.90;;;;;;5010530;28;20034;-78
2024/02/05 06:00:34;;;;;;;36.72;8.02;;;9.70;99.90;;;;;;5013245;28;20112;-78
2024/02/05 06:03:00;;;;;;;35.78;8.52;;;9.70;99.90;;;;;;5008073;28;20041;-78
2024/02/05 06:05:26;;;;;;;34.78;7.88;;;9.70;99.90;;;;;;5006930;28;20057;-77
2024/02/05 06:07:51;;;;;;;27.95;6.97;;;9.70;99.90;;;;;;5005799;28;20034;-77
2024/02/05 06:10:17;;;;;;;40.90;7.72;;;9.70;99.90;;;;;;5009414;28;20481;-81
2024/02/05 06:12:44;;;;;;;31.48;7.45;;;9.70;99.90;;;;;;5010883;28;20049;-77
2024/02/05 06:15:12;;;;;;;32.65;7.28;;;9.70;99.90;;;;;;5006788;28;20026;-77
2024/02/05 06:17:38;;;;;;;32.63;7.85;;;9.70;99.90;;;;;;5002029;28;20046;-77
2024/02/05 06:20:05;;;;;;;40.90;8.48;;;9.70;99.90;;;;;;4997594;28;20050;-77
2024/02/05 06:22:35;;;;;;;32.22;7.50;;;9.60;99.90;;;;;;5008625;28;20042;-79
2024/02/05 06:25:01;;;;;;;34.35;7.20;;;9.60;99.90;;;;;;5004908;28;20073;-79
2024/02/05 06:27:26;;;;;;;31.17;8.25;;;9.60;99.90;;;;;;5004674;28;20037;-77
2024/02/05 06:29:52;;;;;;;36.95;7.90;;;9.60;99.90;;;;;;5009229;28;20040;-77
2024/02/05 06:32:17;;;;;;;32.53;7.97;;;9.60;99.90;;;;;;5007797;28;20038;-80
2024/02/05 06:34:44;;;;;;;38.17;8.23;;;9.60;99.90;;;;;;5006711;28;20046;-77
2024/02/05 06:37:10;;;;;;;34.58;7.70;;;9.60;99.90;;;;;;5010658;28;20050;-79
2024/02/05 06:39:35;;;;;;;32.88;7.45;;;9.60;99.90;;;;;;5007550;28;20058;-77
2024/02/05 06:42:01;;;;;;;27.88;6.72;;;9.60;99.90;;;;;;5013039;28;20038;-77
2024/02/05 06:44:27;;;;;;;36.15;7.95;;;9.60;99.90;;;;;;5012763;28;20076;-77
2024/02/05 06:46:53;;;;;;;33.42;7.40;;;9.60;99.90;;;;;;5009857;28;20439;-78
2024/02/05 06:49:19;;;;;;;29.33;7.13;;;9.60;99.90;;;;;;5005987;28;20040;-78
2024/02/05 06:51:44;;;;;;;40.50;8.65;;;9.60;99.90;;;;;;5001703;28;20042;-79
2024/02/05 06:54:10;;;;;;;35.65;8.48;;;9.60;99.90;;;;;;5002535;28;20034;-80
2024/02/05 06:56:35;;;;;;;27.52;7.53;;;9.50;99.90;;;;;;5007767;28;20042;-77
2024/02/05 06:59:01;;;;;;;28.02;8.27;;;9.50;99.90;;;;;;5009628;28;20080;-78
2024/02/05 07:01:27;;;;;;;32.60;7.85;;;9.60;99.90;;;;;;4998666;28;20046;-79
2024/02/05 07:03:52;;;;;;;33.35;8.52;;;9.60;99.90;;;;;;5010211;28;20048;-80
2024/02/05 07:06:18;;;;;;;33.13;8.35;;;9.50;99.90;;;;;;5008006;28;20077;-77
2024/02/05 07:08:45;;;;;;;44.70;8.45;;;9.60;99.90;;;;;;5013025;28;20037;-78
2024/02/05 07:11:11;;;;;;;32.38;7.07;;;9.80;99.90;;;;;;5012529;28;20507;-78
2024/02/05 07:13:38;;;;;;;31.67;7.88;;;9.60;99.90;;;;;;5013402;28;20068;-77
2024/02/05 07:16:06;;;;;;;32.95;8.60;;;9.60;99.90;;;;;;5011675;28;20100;-78
2024/02/05 07:18:31;;;;;;;36.70;7.10;;;9.60;99.90;;;;;;5003076;28;20030;-77
2024/02/05 07:21:01;;;;;;;31.20;7.18;;;9.60;99.90;;;;;;5008217;28;20030;-80
2024/02/05 07:23:26;;;;;;;28.75;7.88;;;9.50;99.90;;;;;;5001905;28;20037;-77
2024/02/05 07:25:52;;;;;;;33.80;8.00;;;9.50;99.90;;;;;;5004160;28;20049;-77
2024/02/05 07:28:17;;;;;;;30.83;8.07;;;9.50;99.90;;;;;;5012886;28;20121;-78
2024/02/05 07:30:43;;;;;;;35.88;8.13;;;9.50;99.90;;;;;;5008806;28;20097;-79
2024/02/05 07:33:09;;;;;;;32.10;7.63;;;9.40;99.90;;;;;;5006664;28;20046;-76
2024/02/05 07:35:34;;;;;;;39.50;8.80;;;9.50;99.90;;;;;;5005518;28;20044;-77
2024/02/05 07:38:00;;;;;;;41.25;8.38;;;9.50;99.90;;;;;;5006071;28;20069;-77
2024/02/05 07:40:25;;;;;;;28.92;7.43;;;9.50;99.90;;;;;;5005388;28;20044;-80
2024/02/05 07:42:51;;;;;;;29.70;7.07;;;9.50;99.90;;;;;;5011773;28;20038;-78
2024/02/05 07:45:17;;;;;;;33.60;7.05;;;9.50;99.90;;;;;;5007003;28;20057;-79
2024/02/05 07:47:42;;;;;;;29.88;8.63;;;9.50;99.90;;;;;;5003753;28;20046;-77
2024/02/05 07:50:09;;;;;;;32.30;8.10;;;9.50;99.90;;;;;;5001843;28;20121;-78
2024/02/05 07:52:34;;;;;;;23.98;6.88;;;9.50;99.90;;;;;;5012844;28;20372;-77
2024/02/05 07:55:00;;;;;;;34.17;7.88;;;9.50;99.90;;;;;;5011396;28;20092;-78
2024/02/05 07:57:25;;;;;;;32.05;7.25;;;8.90;99.90;;;;;;5011189;28;20038;-77
2024/02/05 07:59:51;;;;;;;26.30;7.07;;;9.40;99.90;;;;;;5010560;28;20121;-76
2024/02/05 08:02:17;;;;;;;30.33;8.10;;;9.40;99.90;;;;;;5009240;28;20069;-77
2024/02/05 08:04:42;;;;;;;38.42;7.97;;;9.40;99.90;;;;;;5003714;28;20046;-80
2024/02/05 08:07:08;;;;;;;26.17;7.10;;;9.40;99.90;;;;;;5009344;28;20124;-77
2024/02/05 08:09:34;;;;;;;33.67;8.15;;;9.40;99.90;;;;;;5009554;28;20030;-77
2024/02/05 08:11:59;;;;;;;31.55;7.10;;;9.40;99.90;;;;;;5011923;28;20121;-77
2024/02/05 08:14:25;;;;;;;31.25;7.57;;;9.40;99.90;;;;;;4993400;28;20089;-77
2024/02/05 08:16:51;;;;;;;34.40;8.75;;;9.40;99.90;;;;;;5008201;28;20123;-77
2024/02/05 08:19:17;;;;;;;42.03;8.48;;;9.50;99.90;;;;;;5010866;28;20057;-79
2024/02/05 08:21:42;;;;;;;29.58;7.40;;;9.40;99.90;;;;;;5010226;28;20042;-77
2024/02/05 08:24:08;;;;;;;30.83;8.18;;;9.80;99.90;;;;;;5005473;28;20483;-77
2024/02/05 08:26:34;;;;;;;28.30;6.97;;;9.50;99.90;;;;;;5007857;28;20133;-77
2024/02/05 08:28:59;;;;;;;31.27;7.15;;;9.40;99.90;;;;;;5009875;28;20046;-77
2024/02/05 08:31:25;;;;;;;28.23;7.38;;;9.40;99.90;;;;;;5004055;28;20049;-78
2024/02/05 08:33:50;;;;;;;36.80;7.65;;;9.40;99.90;;;;;;5008405;28;20462;-77
2024/02/05 08:36:17;;;;;;;28.25;7.05;;;9.40;99.90;;;;;;5006446;28;20445;-77
2024/02/05 08:38:42;;;;;;;27.92;7.43;;;9.40;99.90;;;;;;5007984;28;20041;-77
2024/02/05 08:41:09;;;;;;;28.65;6.63;;;9.40;99.90;;;;;;5010831;28;20088;-77
2024/02/05 08:43:34;;;;;;;27.73;7.45;;;9.40;99.90;;;;;;5010502;28;20488;-76
2024/02/05 08:46:00;;;;;;;25.88;7.05;;;9.40;99.90;;;;;;5007441;28;20046;-77
2024/02/05 08:48:26;;;;;;;33.05;7.68;;;9.40;99.90;;;;;;5005140;28;20066;-77
2024/02/05 08:50:52;;;;;;;39.30;6.78;;;9.40;99.90;;;;;;5008146;28;20038;-76
2024/02/05 08:53:18;;;;;;;29.67;6.93;;;9.40;99.90;;;;;;5004146;28;20499;-77
2024/02/05 08:55:44;;;;;;;29.17;6.55;;;9.50;99.90;;;;;;5004183;28;20053;-76
2024/02/05 08:58:10;;;;;;;29.70;7.05;;;9.50;99.90;;;;;;5009170;28;20100;-77
2024/02/05 09:00:35;;;;;;;32.17;7.80;;;9.40;99.90;;;;;;5006831;28;20038;-77
2024/02/05 09:03:02;;;;;;;37.00;8.07;;;9.40;99.90;;;;;;5008340;28;20092;-77
2024/02/05 09:05:28;;;;;;;32.38;8.13;;;9.40;99.90;;;;;;5007373;28;20045;-77
2024/02/05 09:07:54;;;;;;;30.80;7.28;;;9.40;99.90;;;;;;5008123;28;20487;-79
2024/02/05 09:10:19;;;;;;;27.45;7.07;;;9.40;99.90;;;;;;5006999;28;20041;-77
2024/02/05 09:12:45;;;;;;;33.50;7.30;;;9.40;99.90;;;;;;5011681;28;20496;-77
2024/02/05 09:15:11;;;;;;;33.13;6.32;;;9.40;99.90;;;;;;5010183;28;20042;-77
2024/02/05 09:17:37;;;;;;;29.55;7.03;;;9.50;99.90;;;;;;5011240;28;20033;-77
2024/02/05 09:20:03;;;;;;;29.88;7.45;;;9.50;99.90;;;;;;5005205;28;20034;-77
2024/02/05 09:22:29;;;;;;;33.20;6.65;;;9.50;99.90;;;;;;5010703;28;20099;-77
2024/02/05 09:24:54;;;;;;;31.85;6.63;;;9.40;99.90;;;;;;5010854;28;20112;-79
2024/02/05 09:27:20;;;;;;;34.15;7.53;;;9.50;99.90;;;;;;5010907;28;20405;-77
2024/02/05 09:29:45;;;;;;;31.45;6.90;;;9.50;99.90;;;;;;5011089;28;20487;-77
2024/02/05 09:32:11;;;;;;;26.67;6.88;;;9.40;99.90;;;;;;5009661;28;20038;-77
2024/02/05 09:34:36;;;;;;;30.77;7.25;;;9.50;99.90;;;;;;5005082;28;20394;-79
2024/02/05 09:37:03;;;;;;;27.73;6.75;;;9.50;99.90;;;;;;4994997;28;20121;-77
2024/02/05 09:39:29;;;;;;;28.80;7.07;;;9.50;99.90;;;;;;5008308;28;20361;-77
2024/02/05 09:42:01;;;;;;;35.25;7.32;;;9.50;99.90;;;;;;5010994;28;20037;-76
2024/02/05 09:44:35;;;;;;;25.35;6.18;;;9.50;99.90;;;;;;5012983;28;20088;-77
2024/02/05 09:47:01;;;;;;;32.70;6.55;;;9.50;99.90;;;;;;5011692;28;20104;-77
2024/02/05 09:49:27;;;;;;;31.70;6.38;;;9.60;99.90;;;;;;5011605;28;20110;-76
2024/02/05 09:51:53;;;;;;;24.38;6.00;;;9.60;99.90;;;;;;5007766;28;20543;-77
2024/02/05 09:54:19;;;;;;;28.58;6.85;;;9.50;99.90;;;;;;5008625;28;20026;-77
2024/02/05 09:56:46;;;;;;;28.15;6.18;;;9.60;99.90;;;;;;5004106;28;20073;-77
2024/02/05 09:59:12;;;;;;;30.20;7.03;;;9.70;99.90;;;;;;4999476;28;20046;-80
2024/02/05 10:01:38;;;;;;;29.83;5.82;;;9.60;99.90;;;;;;5007830;28;20042;-77
2024/02/05 10:04:07;;;;;;;34.40;6.97;;;9.60;99.90;;;;;;5002954;28;20045;-77
2024/02/05 10:06:35;;;;;;;25.60;6.72;;;9.70;99.90;;;;;;5007928;28;20046;-76
2024/02/05 10:09:06;;;;;;;33.70;6.78;;;9.70;99.90;;;;;;4995176;28;20034;-77
2024/02/05 10:11:42;;;;;;;28.77;6.07;;;9.70;99.90;;;;;;5000520;28;20042;-77
2024/02/05 10:14:08;;;;;;;25.70;6.13;;;9.70;99.90;;;;;;4996679;28;20049;-78
2024/02/05 10:16:34;;;;;;;32.88;7.05;;;9.70;99.90;;;;;;5012453;28;20042;-77
2024/02/05 10:19:04;;;;;;;27.88;6.20;;;9.70;99.90;;;;;;5010175;28;20041;-77
2024/02/05 10:21:31;;;;;;;24.63;5.80;;;9.70;99.90;;;;;;5003377;28;20050;-80
2024/02/05 10:23:56;;;;;;;22.50;5.90;;;9.70;99.90;;;;;;5009888;28;20042;-77
2024/02/05 10:26:25;;;;;;;30.75;6.63;;;9.70;99.90;;;;;;5008695;28;20115;-78
2024/02/05 10:28:51;;;;;;;23.70;5.55;;;9.70;99.90;;;;;;5005111;28;20037;-80
2024/02/05 10:31:18;;;;;;;30.35;5.95;;;9.70;99.90;;;;;;5007780;28;20041;-77
2024/02/05 10:33:46;;;;;;;27.27;6.22;;;9.70;99.90;;;;;;5002963;28;20121;-77
2024/02/05 10:36:14;;;;;;;24.50;6.18;;;9.80;99.90;;;;;;5002381;28;20047;-78
2024/02/05 10:38:41;;;;;;;31.83;5.43;;;9.70;99.90;;;;;;5001863;28;20046;-77
2024/02/05 10:41:10;;;;;;;32.92;5.72;;;9.80;99.90;;;;;;5005840;28;20480;-79
2024/02/05 10:43:42;;;;;;;31.45;6.65;;;9.80;99.90;;;;;;5006913;28;20051;-77
2024/02/05 10:46:08;;;;;;;;;;;9.80;99.90;;;;;;5001547;28;20048;-77
2024/02/05 10:48:34;;;;;;;26.67;5.97;;;9.80;99.90;;;;;;5007027;28;19922;-77
2024/02/05 10:51:00;;;;;;;23.33;5.70;;;9.80;99.90;;;;;;5008476;28;20099;-77
2024/02/05 10:53:26;;;;;;;25.75;6.28;;;9.80;99.90;;;;;;5012074;28;20112;-77
2024/02/05 10:55:56;;;;;;;31.75;6.38;;;9.80;99.90;;;;;;5010154;28;20391;-76
2024/02/05 10:58:21;;;;;;;22.33;5.43;;;9.80;99.90;;;;;;5005554;28;20562;-77
2024/02/05 11:00:47;;;;;;;25.80;5.97;;;9.80;99.90;;;;;;5012536;28;20049;-77
2024/02/05 11:03:21;;;;;;;25.02;5.22;;;9.80;99.90;;;;;;5004170;28;20085;-77
2024/02/05 11:05:55;;;;;;;26.10;5.75;;;9.90;99.90;;;;;;5007714;28;20124;-77
2024/02/05 11:08:26;;;;;;;21.05;5.50;;;9.80;99.90;;;;;;5006593;28;20121;-77
2024/02/05 11:10:55;;;;;;;27.95;6.80;;;9.90;99.90;;;;;;5003922;28;20042;-77
2024/02/05 11:13:24;;;;;;;26.23;6.07;;;9.80;99.90;;;;;;5012340;28;20038;-77
2024/02/05 11:15:51;;;;;;;28.40;6.43;;;9.80;99.90;;;;;;5019473;28;20612;-76
2024/02/05 11:18:25;;;;;;;26.33;5.95;;;9.80;99.90;;;;;;5014558;28;20048;-77
2024/02/05 11:20:52;;;;;;;23.13;5.63;;;9.90;99.90;;;;;;4998018;28;20068;-77
2024/02/05 11:23:20;;;;;;;31.73;5.63;;;9.90;99.90;;;;;;5009658;28;20069;-77
2024/02/05 11:25:47;;;;;;;21.77;5.72;;;9.90;99.90;;;;;;5000548;28;20052;-80
2024/02/05 11:28:13;;;;;;;22.88;5.88;;;9.90;99.90;;;;;;5005424;28;20042;-77
2024/02/05 11:30:46;;;;;;;23.35;6.25;;;9.90;99.90;;;;;;5008701;28;20382;-77
2024/02/05 11:33:12;;;;;;;29.17;7.68;;;9.90;99.90;;;;;;5013460;28;20026;-77
2024/02/05 11:35:50;;;;;;;26.20;5.93;;;9.90;99.90;;;;;;5006463;28;20038;-77
2024/02/05 11:38:19;;;;;;;26.23;7.07;;;10.00;99.90;;;;;;5008299;28;20115;-77
2024/02/05 11:40:48;;;;;;;29.20;6.28;;;9.90;99.90;;;;;;5007552;28;20037;-77
2024/02/05 11:43:13;;;;;;;29.13;7.47;;;9.90;99.90;;;;;;5013190;28;20410;-77
2024/02/05 11:45:39;;;;;;;26.25;7.65;;;10.00;99.90;;;;;;5001005;28;20046;-77
2024/02/05 11:48:06;;;;;;;28.13;6.85;;;10.00;99.90;;;;;;5012435;28;20041;-77
2024/02/05 11:50:33;;;;;;;28.73;7.68;;;10.00;99.90;;;;;;5005292;28;20514;-77
2024/02/05 11:52:58;;;;;;;28.30;7.15;;;10.00;99.90;;;;;;5004424;28;20401;-77
2024/02/05 11:55:26;;;;;;;24.58;6.88;;;10.00;99.90;;;;;;5012741;28;20113;-77
2024/02/05 11:57:52;;;;;;;25.52;7.43;;;10.00;99.90;;;;;;5018829;28;20387;-77
2024/02/05 12:00:19;;;;;;;24.42;6.43;;;10.00;99.90;;;;;;5017035;28;20450;-77
2024/02/05 12:02:45;;;;;;;38.28;7.97;;;10.00;99.90;;;;;;5008542;28;20041;-77
2024/02/05 12:05:12;;;;;;;23.15;6.70;;;10.00;99.90;;;;;;5005848;28;20084;-79
2024/02/05 12:07:38;;;;;;;31.23;7.63;;;10.00;99.90;;;;;;5007593;28;20038;-77
2024/02/05 12:10:05;;;;;;;30.73;7.00;;;10.00;99.90;;;;;;5005704;28;20125;-77
2024/02/05 12:12:31;;;;;;;26.08;6.85;;;9.90;99.90;;;;;;5013277;28;20491;-77
2024/02/05 12:14:57;;;;;;;34.58;7.35;;;10.00;99.90;;;;;;5009908;28;20038;-77
2024/02/05 12:17:23;;;;;;;32.67;7.20;;;9.90;99.90;;;;;;4991220;28;20153;-77
2024/02/05 12:20:00;;;;;;;31.08;7.07;;;9.90;99.90;;;;;;5009068;28;20408;-77
2024/02/05 12:22:30;;;;;;;31.90;6.43;;;9.90;99.90;;;;;;5013405;28;20045;-77
2024/02/05 12:24:56;;;;;;;31.40;7.50;;;9.90;99.90;;;;;;5009528;28;20046;-79
2024/02/05 12:27:22;;;;;;;28.48;6.05;;;9.90;99.90;;;;;;5012205;28;20044;-79
2024/02/05 12:29:47;;;;;;;28.73;7.07;;;9.90;99.90;;;;;;5012794;28;20065;-79
2024/02/05 12:32:14;;;;;;;25.90;7.70;;;9.90;99.90;;;;;;5008631;28;20057;-77
2024/02/05 12:34:40;;;;;;;34.15;7.63;;;9.90;99.90;;;;;;5011565;28;20173;-78
2024/02/05 12:37:06;;;;;;;30.05;7.38;;;9.80;99.90;;;;;;5007736;28;20583;-77
2024/02/05 12:39:32;;;;;;;40.67;8.70;;;9.80;99.90;;;;;;5009652;28;20614;-79